Time;durP1;ratioP1;P1;durP2;ratioP2;P2;SDS_P1;SDS_P2;PMS_P1;PMS_P2;Temp;Humidity;BMP_temperature;BMP_pressure;BME280_temperature;BME280_humidity;BME280_pressure;Samples;Min_cycle;Max_cycle;Signal;HPM_P1;HPM_P2
2023/02/13 00:00:28;;;;;;;5.20;4.70;;;18.10;58.80;;;;;;5000634;28;20552;-78
2023/02/13 00:02:55;;;;;;;4.13;3.73;;;18.10;58.80;;;;;;4990562;28;20461;-78
2023/02/13 00:05:23;;;;;;;5.97;4.10;;;18.10;58.80;;;;;;5001707;28;20464;-78
2023/02/13 00:07:51;;;;;;;4.93;3.90;;;18.10;58.80;;;;;;5002361;28;20451;-79
2023/02/13 00:10:21;;;;;;;4.70;3.80;;;18.10;58.80;;;;;;4998247;28;20449;-78
2023/02/13 00:12:48;;;;;;;4.40;4.00;;;18.10;58.70;;;;;;5003214;28;21054;-80
2023/02/13 00:15:17;;;;;;;5.00;4.30;;;18.10;58.70;;;;;;4997476;28;20489;-79
2023/02/13 00:17:45;;;;;;;5.33;4.30;;;18.00;58.70;;;;;;5007950;28;20497;-81
2023/02/13 00:20:13;;;;;;;4.80;4.40;;;18.00;58.70;;;;;;5008623;28;20450;-79
2023/02/13 00:22:41;;;;;;;4.77;4.27;;;18.00;58.80;;;;;;5006598;28;20474;-81
2023/02/13 00:25:09;;;;;;;4.90;4.03;;;18.00;58.80;;;;;;5008310;28;20449;-80
2023/02/13 00:27:38;;;;;;;5.20;4.43;;;18.00;58.80;;;;;;4993805;28;20474;-80
2023/02/13 00:30:07;;;;;;;4.40;4.00;;;18.00;58.80;;;;;;5005401;28;20444;-80
2023/02/13 00:32:35;;;;;;;4.90;4.27;;;18.00;58.70;;;;;;5004017;28;20473;-79
2023/02/13 00:35:03;;;;;;;5.90;4.20;;;18.00;58.70;;;;;;5004103;28;20456;-78
2023/02/13 00:37:31;;;;;;;4.70;4.23;;;18.00;58.80;;;;;;5002364;28;20548;-79
2023/02/13 00:39:59;;;;;;;5.60;4.40;;;18.00;58.80;;;;;;5004092;28;20454;-81
2023/02/13 00:42:27;;;;;;;4.50;4.10;;;18.00;58.80;;;;;;5007044;28;20615;-81
2023/02/13 00:44:56;;;;;;;5.50;4.70;;;18.00;58.80;;;;;;5000747;28;20449;-81
2023/02/13 00:47:24;;;;;;;5.97;4.60;;;18.00;58.80;;;;;;5006802;28;20559;-81
2023/02/13 00:49:52;;;;;;;6.27;4.90;;;18.00;58.70;;;;;;5006973;28;20461;-80
2023/02/13 00:52:20;;;;;;;4.83;4.33;;;18.00;58.80;;;;;;5003931;28;20473;-77
2023/02/13 00:54:48;;;;;;;5.17;4.47;;;18.00;58.80;;;;;;4999655;28;20449;-80
2023/02/13 00:57:15;;;;;;;5.50;4.20;;;18.00;58.80;;;;;;5006331;28;20481;-80
2023/02/13 00:59:43;;;;;;;6.00;4.40;;;18.00;59.50;;;;;;5003650;28;20452;-79
2023/02/13 01:02:13;;;;;;;6.70;4.67;;;18.00;58.90;;;;;;5007012;28;20464;-81
2023/02/13 01:04:41;;;;;;;5.57;4.00;;;18.00;58.80;;;;;;5007595;28;20456;-81
2023/02/13 01:07:10;;;;;;;6.10;4.30;;;18.00;58.90;;;;;;5009721;28;20454;-79
2023/02/13 01:09:38;;;;;;;6.93;4.57;;;17.90;58.80;;;;;;5000584;28;20512;-81
2023/02/13 01:12:06;;;;;;;5.70;4.57;;;17.90;58.80;;;;;;5005331;28;20488;-80
2023/02/13 01:14:34;;;;;;;8.13;4.67;;;17.90;58.90;;;;;;5006620;28;20460;-81
2023/02/13 01:17:03;;;;;;;4.57;4.00;;;17.90;58.90;;;;;;5008172;28;20468;-80
2023/02/13 01:19:32;;;;;;;4.30;3.90;;;17.90;58.80;;;;;;5016408;28;20453;-80
2023/02/13 01:22:00;;;;;;;5.53;4.60;;;17.90;58.80;;;;;;5005831;28;20473;-80
2023/02/13 01:24:28;;;;;;;4.03;3.60;;;17.90;58.80;;;;;;5006442;28;20460;-80
2023/02/13 01:26:56;;;;;;;4.70;4.30;;;17.90;58.90;;;;;;5005234;28;20848;-81
2023/02/13 01:29:24;;;;;;;6.10;4.30;;;17.90;58.90;;;;;;5000503;28;20493;-79
2023/02/13 01:31:52;;;;;;;4.90;4.40;;;17.90;58.90;;;;;;4998551;28;20473;-79
2023/02/13 01:34:21;;;;;;;5.07;4.10;;;17.90;58.90;;;;;;4987133;28;20525;-78
2023/02/13 01:36:50;;;;;;;4.90;4.40;;;17.90;58.80;;;;;;4995531;28;20460;-78
2023/02/13 01:39:18;;;;;;;5.27;4.77;;;17.90;58.80;;;;;;4999499;28;20476;-79
2023/02/13 01:41:46;;;;;;;4.80;4.40;;;17.90;58.90;;;;;;5001002;28;20498;-78
2023/02/13 01:44:50;;;;;;;7.00;4.77;;;17.90;58.90;;;;;;4997507;28;20555;-78
2023/02/13 01:47:20;;;;;;;4.70;4.17;;;17.90;58.80;;;;;;4995750;28;20437;-80
2023/02/13 01:49:48;;;;;;;5.67;4.37;;;17.80;59.00;;;;;;4997424;28;20469;-79
2023/02/13 01:52:18;;;;;;;7.53;5.60;;;17.80;59.00;;;;;;4995693;28;20484;-80
2023/02/13 01:54:46;;;;;;;10.67;8.53;;;17.90;58.90;;;;;;5000155;28;20457;-80
2023/02/13 01:57:16;;;;;;;9.17;6.93;;;17.80;58.90;;;;;;5000258;28;20496;-80
2023/02/13 01:59:46;;;;;;;9.07;6.57;;;17.80;59.00;;;;;;5001568;28;20484;-80
2023/02/13 02:02:13;;;;;;;9.20;6.97;;;17.80;58.90;;;;;;5002541;28;20473;-80
2023/02/13 02:04:42;;;;;;;7.90;6.57;;;17.80;59.00;;;;;;4998709;28;20457;-79
2023/02/13 02:07:11;;;;;;;8.63;6.97;;;17.80;59.00;;;;;;4998729;28;20459;-80
2023/02/13 02:09:42;;;;;;;9.27;7.07;;;17.80;58.90;;;;;;4998253;28;20449;-79
2023/02/13 02:12:13;;;;;;;8.70;7.47;;;17.80;58.90;;;;;;4993617;28;20556;-78
2023/02/13 02:14:41;;;;;;;8.53;6.90;;;17.80;59.00;;;;;;4997538;28;20445;-78
2023/02/13 02:17:09;;;;;;;9.17;7.27;;;17.80;59.00;;;;;;4997656;28;20453;-78
2023/02/13 02:19:38;;;;;;;8.37;7.00;;;17.80;59.10;;;;;;4996256;28;20500;-78
2023/02/13 02:22:17;;;;;;;9.33;6.97;;;17.80;59.00;;;;;;4997551;28;20536;-79
2023/02/13 02:25:30;;;;;;;9.90;7.07;;;17.80;58.90;;;;;;5003207;28;20454;-80
2023/02/13 02:28:16;;;;;;;7.40;6.30;;;17.80;58.90;;;;;;5003561;28;20457;-80
2023/02/13 02:31:12;;;;;;;7.90;6.63;;;17.80;59.00;;;;;;4992153;28;20458;-78
2023/02/13 02:33:48;;;;;;;7.80;5.33;;;17.80;59.00;;;;;;5002380;28;20489;-80
2023/02/13 02:36:23;;;;;;;6.73;5.70;;;17.80;59.00;;;;;;5002653;28;20520;-80
2023/02/13 02:38:59;;;;;;;6.97;5.77;;;17.80;59.00;;;;;;5002565;28;20487;-80
2023/02/13 02:41:41;;;;;;;8.20;6.83;;;17.80;59.10;;;;;;5001712;28;20477;-79
2023/02/13 02:44:18;;;;;;;6.67;6.07;;;17.80;59.20;;;;;;5005623;28;20453;-80
2023/02/13 02:50:00;;;;;;;7.53;5.50;;;17.80;59.10;;;;;;5000364;28;20461;-79
2023/02/13 02:52:35;;;;;;;6.40;5.30;;;17.70;59.00;;;;;;4997838;28;20512;-79
2023/02/13 02:55:06;;;;;;;6.07;5.47;;;17.70;59.00;;;;;;4999637;28;20448;-80
2023/02/13 03:06:12;;;;;;;6.20;5.53;;;17.70;59.10;;;;;;5001048;28;20475;-79
2023/02/13 03:14:21;;;;;;;6.63;5.70;;;17.70;59.10;;;;;;4971301;28;20453;-79
2023/02/13 03:22:34;;;;;;;5.37;4.67;;;17.70;59.30;;;;;;4992182;28;20483;-80
2023/02/13 03:25:07;;;;;;;6.07;5.37;;;17.70;59.30;;;;;;4999956;28;20493;-80
2023/02/13 03:30:30;;;;;;;5.93;4.97;;;17.70;59.20;;;;;;5000118;28;20456;-79
2023/02/13 03:33:05;;;;;;;6.47;5.23;;;17.70;59.30;;;;;;5010224;28;20496;-78
2023/02/13 03:38:24;;;;;;;6.60;5.10;;;17.60;59.10;;;;;;4997904;28;20452;-79
2023/02/13 03:43:47;;;;;;;6.60;5.33;;;17.60;59.20;;;;;;4991871;28;20499;-78
2023/02/13 03:46:15;;;;;;;5.30;4.40;;;17.60;59.20;;;;;;4997149;28;20449;-78
2023/02/13 03:51:32;;;;;;;5.63;4.67;;;17.60;59.30;;;;;;5003323;28;20468;-78
2023/02/13 03:54:03;;;;;;;5.23;4.73;;;17.60;59.20;;;;;;4999126;28;20466;-80
2023/02/13 03:59:21;;;;;;;4.77;4.30;;;17.60;59.20;;;;;;5000751;28;20472;-79
2023/02/13 04:01:54;;;;;;;5.80;4.50;;;17.60;59.40;;;;;;5001821;28;20482;-79
2023/02/13 04:04:25;;;;;;;4.90;4.50;;;17.60;59.20;;;;;;5004271;28;20989;-79
2023/02/13 04:06:56;;;;;;;5.23;4.30;;;17.60;59.30;;;;;;4997266;28;20454;-78
2023/02/13 04:09:25;;;;;;;4.50;4.10;;;17.60;59.30;;;;;;5003964;28;20465;-79
2023/02/13 04:11:57;;;;;;;5.43;4.60;;;17.60;59.20;;;;;;5000199;28;20465;-80
2023/02/13 04:14:26;;;;;;;4.93;4.43;;;17.60;59.30;;;;;;5004319;28;20445;-80
2023/02/13 04:16:56;;;;;;;5.37;4.67;;;17.60;59.30;;;;;;5000850;28;20455;-80
2023/02/13 04:19:24;;;;;;;5.67;4.00;;;17.60;59.30;;;;;;4998653;28;20468;-79
2023/02/13 04:21:55;;;;;;;6.20;4.60;;;17.60;59.40;;;;;;4995553;28;20477;-77
2023/02/13 04:24:25;;;;;;;4.70;4.20;;;17.60;59.20;;;;;;4997971;28;20450;-79
2023/02/13 04:26:53;;;;;;;5.40;4.50;;;17.60;59.20;;;;;;5001538;28;20537;-80
2023/02/13 04:29:21;;;;;;;6.27;4.40;;;17.60;59.40;;;;;;5003385;28;20548;-78
2023/02/13 04:31:49;;;;;;;4.77;4.30;;;17.60;59.30;;;;;;5001230;28;20482;-79
2023/02/13 04:34:17;;;;;;;4.40;4.10;;;17.60;59.30;;;;;;5001007;28;20454;-78
2023/02/13 04:36:45;;;;;;;4.80;4.30;;;17.60;59.40;;;;;;5000045;28;20454;-80
2023/02/13 04:39:13;;;;;;;4.37;3.93;;;17.60;59.40;;;;;;5007127;28;20616;-81
2023/02/13 04:41:43;;;;;;;3.83;3.53;;;17.60;59.40;;;;;;5002605;28;20486;-81
2023/02/13 04:44:11;;;;;;;5.57;4.13;;;17.60;59.40;;;;;;5006798;28;20450;-81
2023/02/13 04:46:39;;;;;;;5.07;4.63;;;17.60;59.50;;;;;;5003361;28;20454;-80
2023/02/13 04:49:07;;;;;;;4.27;3.87;;;17.60;59.30;;;;;;5006105;28;20447;-80
2023/02/13 04:51:35;;;;;;;5.43;4.10;;;17.60;59.40;;;;;;5002071;28;20465;-78
2023/02/13 04:54:03;;;;;;;5.50;4.00;;;17.60;59.50;;;;;;4993349;28;20525;-79
2023/02/13 04:56:31;;;;;;;4.60;4.20;;;17.60;59.40;;;;;;5003419;28;20481;-78
2023/02/13 04:59:01;;;;;;;4.77;4.07;;;17.60;59.50;;;;;;5001952;28;20464;-79
2023/02/13 05:01:29;;;;;;;5.13;4.33;;;17.50;59.40;;;;;;5002280;28;20461;-78
2023/02/13 05:03:57;;;;;;;4.57;3.93;;;17.60;59.50;;;;;;5001840;28;20481;-79
2023/02/13 05:06:25;;;;;;;4.73;4.23;;;17.60;59.40;;;;;;5001172;28;20458;-78
2023/02/13 05:08:54;;;;;;;3.80;3.50;;;17.60;59.40;;;;;;4999749;28;20457;-79
2023/02/13 05:11:22;;;;;;;4.13;3.83;;;17.60;59.50;;;;;;4997360;28;20475;-78
2023/02/13 05:13:49;;;;;;;4.90;4.50;;;17.50;59.40;;;;;;5000658;28;20445;-79
2023/02/13 05:16:18;;;;;;;5.30;4.40;;;17.50;59.40;;;;;;5000201;28;20460;-79
2023/02/13 05:18:46;;;;;;;4.30;3.90;;;17.50;59.30;;;;;;5000897;28;20449;-79
2023/02/13 05:24:00;;;;;;;4.73;4.33;;;17.50;59.40;;;;;;5004391;28;20456;-79
2023/02/13 05:26:28;;;;;;;4.23;3.83;;;17.50;59.50;;;;;;5000166;28;20469;-80
2023/02/13 05:31:42;;;;;;;5.70;3.90;;;17.50;59.40;;;;;;4998749;28;20458;-79
2023/02/13 05:34:11;;;;;;;4.03;3.73;;;17.50;59.50;;;;;;5002544;28;20484;-79
2023/02/13 05:36:38;;;;;;;4.50;4.00;;;17.50;59.40;;;;;;5000914;28;20453;-79
2023/02/13 05:39:07;;;;;;;4.20;3.80;;;17.50;59.40;;;;;;5000441;28;20976;-79
2023/02/13 05:41:35;;;;;;;3.33;3.13;;;17.50;59.40;;;;;;5001433;28;20484;-79
2023/02/13 05:44:03;;;;;;;4.17;3.87;;;17.50;59.40;;;;;;5000150;28;20453;-79
2023/02/13 05:46:31;;;;;;;3.87;3.57;;;17.50;59.40;;;;;;4998750;28;20460;-79
2023/02/13 05:49:00;;;;;;;4.17;3.80;;;17.50;59.50;;;;;;4999440;28;20460;-78
2023/02/13 05:51:31;;;;;;;3.97;3.67;;;17.50;59.50;;;;;;4995364;28;20458;-79
2023/02/13 05:53:59;;;;;;;4.00;3.70;;;17.50;59.50;;;;;;5000101;28;20461;-79
2023/02/13 05:56:27;;;;;;;5.57;3.80;;;17.50;59.40;;;;;;4997085;28;20479;-79
2023/02/13 05:58:55;;;;;;;4.20;3.70;;;17.50;59.50;;;;;;4999779;28;20457;-78
2023/02/13 06:01:24;;;;;;;4.20;3.90;;;17.50;59.50;;;;;;4999382;28;20481;-77
2023/02/13 06:03:52;;;;;;;4.10;3.80;;;17.50;59.40;;;;;;4998000;28;20468;-79
2023/02/13 06:06:21;;;;;;;3.90;3.50;;;17.50;59.40;;;;;;4999142;28;20461;-79
2023/02/13 06:08:49;;;;;;;3.60;3.40;;;17.50;59.60;;;;;;5002546;28;20448;-79
2023/02/13 06:11:17;;;;;;;4.20;3.90;;;17.50;59.50;;;;;;4995602;28;20473;-78
2023/02/13 06:13:45;;;;;;;3.97;3.67;;;17.50;59.60;;;;;;4999008;28;20473;-79
2023/02/13 06:16:13;;;;;;;4.27;3.87;;;17.50;59.50;;;;;;4997819;28;20457;-79
2023/02/13 06:18:42;;;;;;;4.00;3.70;;;17.50;59.50;;;;;;4997932;28;20457;-77
2023/02/13 06:21:09;;;;;;;3.57;3.27;;;17.50;59.60;;;;;;4997654;28;20466;-79
2023/02/13 06:23:39;;;;;;;4.03;3.73;;;17.50;59.60;;;;;;4990732;28;20479;-79
2023/02/13 06:26:08;;;;;;;3.73;3.43;;;17.50;59.60;;;;;;4998206;28;20574;-79
2023/02/13 06:28:36;;;;;;;5.80;3.60;;;17.40;59.50;;;;;;4999604;28;20457;-79
2023/02/13 06:31:05;;;;;;;3.80;3.23;;;17.50;59.80;;;;;;4998339;28;20464;-78
2023/02/13 06:33:33;;;;;;;4.00;3.70;;;17.50;59.60;;;;;;4999510;28;20568;-79
2023/02/13 06:36:01;;;;;;;4.53;3.90;;;17.50;59.60;;;;;;4987926;28;20471;-79
2023/02/13 06:38:30;;;;;;;3.50;3.30;;;17.50;59.60;;;;;;4994383;28;20548;-78
2023/02/13 06:41:01;;;;;;;3.60;3.30;;;17.50;59.70;;;;;;4999196;28;20477;-79
2023/02/13 06:43:29;;;;;;;3.20;3.00;;;17.50;59.60;;;;;;5004402;28;20493;-79
2023/02/13 06:45:57;;;;;;;4.13;3.63;;;17.50;59.50;;;;;;4999488;28;20449;-79
2023/02/13 06:48:25;;;;;;;3.70;3.40;;;17.50;59.50;;;;;;5004243;28;20491;-78
2023/02/13 06:50:53;;;;;;;3.53;3.27;;;17.50;59.50;;;;;;5005246;28;20464;-79
2023/02/13 06:53:23;;;;;;;3.13;2.80;;;17.40;59.50;;;;;;5004218;28;20468;-79
2023/02/13 06:55:52;;;;;;;3.70;3.40;;;17.50;59.60;;;;;;5001912;28;20553;-78
2023/02/13 06:58:22;;;;;;;4.10;3.80;;;17.40;59.50;;;;;;5004309;28;20504;-79
2023/02/13 07:00:50;;;;;;;3.60;3.30;;;17.40;59.60;;;;;;5002018;28;20473;-79
2023/02/13 07:03:18;;;;;;;3.80;3.50;;;17.40;59.60;;;;;;5004402;28;20477;-77
2023/02/13 07:05:47;;;;;;;3.57;3.30;;;17.50;59.60;;;;;;5001843;28;20545;-79
2023/02/13 07:08:15;;;;;;;3.70;3.40;;;17.40;59.50;;;;;;5000669;28;20445;-78
2023/02/13 07:10:43;;;;;;;3.83;3.53;;;17.40;59.50;;;;;;4997733;28;20550;-78
2023/02/13 07:13:12;;;;;;;3.47;3.27;;;17.40;59.50;;;;;;4997204;28;20475;-78
2023/02/13 07:15:42;;;;;;;3.20;3.00;;;17.40;59.60;;;;;;4997792;28;20457;-78
2023/02/13 07:18:10;;;;;;;3.47;3.17;;;17.40;59.60;;;;;;4996855;28;20457;-78
2023/02/13 07:20:38;;;;;;;3.33;3.13;;;17.40;59.60;;;;;;4997265;28;20469;-78
2023/02/13 07:23:06;;;;;;;3.50;3.30;;;17.40;59.60;;;;;;4997127;28;20473;-78
2023/02/13 07:25:34;;;;;;;3.27;3.07;;;17.40;59.70;;;;;;4991309;28;20460;-78
2023/02/13 07:28:03;;;;;;;3.17;2.97;;;17.40;59.50;;;;;;4996300;28;20520;-78
2023/02/13 07:30:31;;;;;;;3.57;3.37;;;17.40;59.70;;;;;;4996851;28;20492;-78
2023/02/13 07:33:01;;;;;;;3.60;3.30;;;17.40;59.50;;;;;;4991269;28;20473;-78
2023/02/13 07:35:29;;;;;;;3.77;3.47;;;17.40;59.60;;;;;;4997570;28;20465;-79
2023/02/13 07:37:59;;;;;;;3.53;3.23;;;17.40;59.60;;;;;;5001305;28;20449;-79
2023/02/13 07:40:27;;;;;;;3.10;2.90;;;17.40;59.60;;;;;;4993822;28;20454;-79
2023/02/13 07:42:55;;;;;;;3.17;2.90;;;17.40;59.70;;;;;;5004010;28;20504;-80
2023/02/13 07:45:23;;;;;;;3.37;3.17;;;17.40;59.80;;;;;;4999004;28;20467;-78
2023/02/13 07:47:51;;;;;;;3.57;3.27;;;17.40;59.50;;;;;;4997304;28;20457;-77
2023/02/13 07:50:21;;;;;;;6.10;3.63;;;17.40;59.70;;;;;;4995912;28;20469;-77
2023/02/13 07:52:53;;;;;;;3.03;2.83;;;17.40;59.60;;;;;;4989004;28;20477;-77
2023/02/13 07:55:21;;;;;;;2.80;2.70;;;17.50;59.60;;;;;;4996000;28;20453;-78
2023/02/13 07:57:50;;;;;;;3.03;2.80;;;17.40;59.60;;;;;;4992373;28;20456;-78
2023/02/13 08:00:18;;;;;;;3.53;3.20;;;17.40;59.60;;;;;;4989006;28;20450;-78
2023/02/13 08:02:46;;;;;;;3.47;3.20;;;17.50;59.70;;;;;;4996516;28;20485;-79
2023/02/13 08:05:14;;;;;;;2.90;2.70;;;17.50;59.70;;;;;;5001259;28;20457;-79
2023/02/13 08:07:44;;;;;;;3.50;3.20;;;17.50;59.60;;;;;;5000163;28;20462;-80
2023/02/13 08:12:58;;;;;;;3.60;3.30;;;17.50;59.60;;;;;;4996881;28;20478;-78
2023/02/13 08:15:26;;;;;;;4.30;3.57;;;17.50;59.70;;;;;;4990522;28;20464;-77
2023/02/13 08:17:54;;;;;;;3.37;3.17;;;17.50;59.60;;;;;;4994782;28;20441;-77
2023/02/13 08:20:22;;;;;;;8.43;3.10;;;17.50;59.60;;;;;;4997499;28;20453;-78
2023/02/13 08:22:52;;;;;;;3.33;3.03;;;17.50;59.60;;;;;;4995265;28;20487;-77
2023/02/13 08:25:19;;;;;;;3.30;3.10;;;17.50;59.60;;;;;;4994293;28;20457;-78
2023/02/13 08:27:47;;;;;;;3.83;3.53;;;17.50;59.60;;;;;;4983803;28;20457;-77
2023/02/13 08:30:16;;;;;;;3.10;2.87;;;17.50;59.60;;;;;;5005726;28;20457;-79
2023/02/13 08:32:43;;;;;;;3.00;2.80;;;17.50;59.60;;;;;;4988479;28;20531;-77
2023/02/13 08:35:21;;;;;;;3.30;3.00;;;17.60;59.60;;;;;;4981408;28;20488;-77
2023/02/13 08:37:49;;;;;;;4.43;3.37;;;17.60;59.60;;;;;;4989375;28;20441;-78
2023/02/13 08:40:19;;;;;;;3.50;3.23;;;17.60;59.50;;;;;;4995838;28;20461;-76
2023/02/13 08:42:46;;;;;;;3.47;3.17;;;17.60;59.50;;;;;;4977778;28;20506;-77
2023/02/13 08:45:15;;;;;;;3.40;3.20;;;17.60;59.50;;;;;;4980454;28;20465;-76
2023/02/13 08:47:43;;;;;;;3.70;3.40;;;17.60;59.50;;;;;;4985357;28;20468;-76
2023/02/13 08:50:11;;;;;;;3.53;3.30;;;17.60;59.60;;;;;;4979485;28;20473;-77
2023/02/13 08:52:39;;;;;;;3.20;3.00;;;17.60;59.50;;;;;;4977594;28;20484;-76
2023/02/13 08:55:07;;;;;;;3.10;2.90;;;17.60;59.50;;;;;;4977253;28;20454;-76
2023/02/13 08:57:36;;;;;;;3.90;3.50;;;17.60;59.60;;;;;;4981443;28;20478;-77
2023/02/13 09:00:05;;;;;;;3.20;3.00;;;17.60;59.40;;;;;;4980067;28;20485;-77
2023/02/13 09:02:32;;;;;;;3.50;3.20;;;17.60;59.40;;;;;;4977913;28;20474;-77
2023/02/13 09:05:00;;;;;;;3.10;2.90;;;17.60;59.50;;;;;;4981510;28;20516;-75
2023/02/13 09:07:28;;;;;;;3.17;2.97;;;17.70;59.50;;;;;;4985500;28;20452;-76
2023/02/13 09:09:56;;;;;;;3.47;3.17;;;17.70;59.40;;;;;;4992940;28;20449;-76
2023/02/13 09:12:24;;;;;;;3.00;2.80;;;17.70;59.40;;;;;;4988448;28;20470;-78
2023/02/13 09:14:53;;;;;;;3.17;2.97;;;17.70;59.40;;;;;;4989727;28;20449;-77
2023/02/13 09:17:22;;;;;;;3.90;3.60;;;17.70;59.40;;;;;;4986228;28;20460;-77
2023/02/13 09:19:50;;;;;;;4.00;3.70;;;17.70;59.30;;;;;;4993688;28;20454;-79
2023/02/13 09:22:18;;;;;;;3.37;3.10;;;17.70;59.40;;;;;;4992782;28;20477;-77
2023/02/13 09:24:46;;;;;;;3.63;3.33;;;17.70;59.30;;;;;;4993535;28;20457;-78
2023/02/13 09:27:14;;;;;;;3.27;2.97;;;17.70;59.30;;;;;;4992391;28;20480;-78
2023/02/13 09:29:42;;;;;;;3.10;2.90;;;17.70;59.40;;;;;;4985629;28;20449;-77
2023/02/13 09:32:11;;;;;;;3.53;3.30;;;17.70;59.40;;;;;;4986285;28;20461;-78
2023/02/13 09:34:39;;;;;;;24.30;13.87;;;17.70;59.20;;;;;;4988853;28;21034;-78
2023/02/13 09:37:07;;;;;;;30.33;16.57;;;17.50;57.00;;;;;;4984349;28;20460;-78
2023/02/13 09:39:35;;;;;;;28.00;16.80;;;16.60;58.00;;;;;;4983800;28;20464;-78
2023/02/13 09:42:03;;;;;;;36.17;17.10;;;15.90;58.70;;;;;;4990784;28;20488;-81
2023/02/13 09:44:34;;;;;;;25.90;15.57;;;15.80;58.40;;;;;;4984724;28;20453;-80
2023/02/13 09:47:04;;;;;;;24.73;15.77;;;15.70;58.90;;;;;;4990867;28;20459;-79
2023/02/13 09:49:35;;;;;;;29.43;17.03;;;15.30;59.00;;;;;;4992095;28;20456;-79
2023/02/13 09:52:03;;;;;;;23.47;15.40;;;15.20;59.10;;;;;;4993870;28;20465;-78
2023/02/13 09:54:31;;;;;;;18.90;11.80;;;15.00;64.00;;;;;;4992624;28;20450;-79
2023/02/13 09:57:00;;;;;;;14.57;9.60;;;16.00;66.50;;;;;;4990840;28;20473;-80
2023/02/13 09:59:34;;;;;;;12.70;8.30;;;16.90;63.00;;;;;;4991262;28;20453;-80
2023/02/13 10:02:08;;;;;;;10.70;7.97;;;17.60;60.50;;;;;;4987181;28;20491;-79
2023/02/13 10:04:41;;;;;;;8.70;6.40;;;18.10;58.80;;;;;;4982656;28;20543;-80
2023/02/13 10:07:14;;;;;;;9.53;6.40;;;18.70;58.10;;;;;;4989770;28;20456;-80
2023/02/13 10:09:46;;;;;;;12.90;5.60;;;19.10;57.20;;;;;;4988899;28;20458;-80
2023/02/13 10:12:25;;;;;;;6.93;4.80;;;19.50;56.50;;;;;;4988648;28;20473;-80
2023/02/13 10:14:58;;;;;;;8.60;4.17;;;19.90;55.90;;;;;;4984634;28;20457;-79
2023/02/13 10:17:28;;;;;;;5.00;4.00;;;20.20;55.60;;;;;;4992477;28;20454;-80
2023/02/13 10:20:00;;;;;;;3.80;3.50;;;20.40;55.20;;;;;;4987058;28;20458;-79
2023/02/13 10:22:30;;;;;;;4.33;3.10;;;20.70;54.80;;;;;;4989782;28;20487;-79
2023/02/13 10:25:01;;;;;;;4.80;2.97;;;20.90;54.50;;;;;;4987171;28;20472;-81
2023/02/13 10:27:34;;;;;;;3.60;3.30;;;21.10;54.30;;;;;;4991312;28;20469;-82
2023/02/13 10:30:05;;;;;;;11.20;3.13;;;21.30;54.00;;;;;;4987060;28;20468;-81
2023/02/13 10:32:38;;;;;;;12.47;3.13;;;21.40;53.80;;;;;;4987614;28;20465;-80
2023/02/13 10:35:19;;;;;;;2.97;2.67;;;21.50;53.60;;;;;;4990706;28;20456;-81
2023/02/13 10:37:49;;;;;;;2.63;2.43;;;21.70;53.50;;;;;;4990655;28;20457;-80
2023/02/13 10:40:18;;;;;;;5.40;2.30;;;21.80;53.40;;;;;;4990972;28;20457;-79
2023/02/13 10:42:46;;;;;;;3.10;2.80;;;21.80;53.40;;;;;;4989904;28;20508;-80
2023/02/13 10:45:23;;;;;;;4.20;2.43;;;21.90;53.00;;;;;;4988154;28;20947;-78
2023/02/13 10:47:57;;;;;;;4.63;2.67;;;21.90;53.10;;;;;;4989783;28;20464;-78
2023/02/13 10:50:30;;;;;;;3.00;2.70;;;22.00;53.10;;;;;;4994910;28;20464;-78
2023/02/13 10:53:12;;;;;;;3.33;2.13;;;22.10;53.20;;;;;;4992150;28;20481;-81
2023/02/13 10:56:19;;;;;;;5.80;2.37;;;22.20;53.20;;;;;;4990548;28;20484;-79
2023/02/13 10:58:57;;;;;;;4.70;2.43;;;22.20;53.30;;;;;;4988195;28;20527;-78
2023/02/13 11:01:29;;;;;;;5.40;2.27;;;22.30;53.40;;;;;;4990968;28;20464;-79
2023/02/13 11:04:05;;;;;;;8.00;2.50;;;22.30;53.40;;;;;;4986627;28;21226;-78
2023/02/13 11:06:36;;;;;;;4.23;2.20;;;22.30;53.50;;;;;;4986020;28;20461;-78
2023/02/13 11:09:05;;;;;;;7.63;2.10;;;22.40;53.60;;;;;;4988139;28;20457;-77
2023/02/13 11:11:34;;;;;;;2.60;2.40;;;22.40;53.80;;;;;;4992090;28;20473;-80
2023/02/13 11:14:10;;;;;;;3.80;1.90;;;22.40;53.80;;;;;;4989255;28;20434;-78
2023/02/13 11:16:40;;;;;;;2.30;2.07;;;22.40;53.80;;;;;;4995634;28;20499;-79
2023/02/13 11:19:18;;;;;;;6.60;2.50;;;22.40;54.00;;;;;;4991135;28;20461;-80
2023/02/13 11:21:48;;;;;;;3.00;2.20;;;22.40;54.00;;;;;;4993452;28;20504;-79
2023/02/13 11:24:21;;;;;;;6.10;2.40;;;22.50;54.30;;;;;;4985090;28;20481;-79
2023/02/13 11:26:53;;;;;;;5.30;2.00;;;22.50;54.40;;;;;;4999199;28;20477;-79
2023/02/13 11:29:24;;;;;;;2.67;2.47;;;22.50;54.20;;;;;;4998455;28;20472;-78
2023/02/13 11:32:04;;;;;;;7.80;2.50;;;22.50;54.40;;;;;;4991145;28;20474;-79
2023/02/13 11:34:32;;;;;;;3.67;2.30;;;22.60;54.50;;;;;;4993775;28;20460;-79
2023/02/13 11:37:19;;;;;;;2.90;2.27;;;22.60;54.40;;;;;;4996360;28;20452;-78
2023/02/13 11:39:48;;;;;;;2.27;2.17;;;22.60;54.50;;;;;;5000122;28;20457;-81
2023/02/13 11:42:21;;;;;;;2.40;2.20;;;22.60;54.60;;;;;;4996774;28;20896;-78
2023/02/13 11:44:50;;;;;;;2.30;2.07;;;22.60;54.60;;;;;;4996306;28;20516;-79
2023/02/13 11:47:29;;;;;;;2.33;2.13;;;22.60;54.50;;;;;;4996317;28;20485;-80
2023/02/13 11:49:57;;;;;;;2.20;1.97;;;22.60;54.70;;;;;;4998019;28;20439;-81
2023/02/13 11:52:28;;;;;;;2.80;1.90;;;22.60;54.70;;;;;;4998902;28;20478;-81
2023/02/13 11:54:56;;;;;;;3.50;2.90;;;22.70;54.90;;;;;;4999859;28;20420;-81
2023/02/13 11:57:28;;;;;;;6.60;2.30;;;22.70;54.70;;;;;;5001543;28;20465;-81
2023/02/13 11:59:56;;;;;;;5.27;2.30;;;22.60;54.90;;;;;;4999055;28;20537;-80
2023/02/13 12:02:25;;;;;;;2.70;2.50;;;22.60;54.90;;;;;;5000420;28;20473;-81
2023/02/13 12:04:55;;;;;;;6.50;2.30;;;22.60;55.00;;;;;;4996717;28;20483;-79
2023/02/13 12:07:26;;;;;;;3.43;2.57;;;22.60;55.00;;;;;;4992705;28;20532;-80
2023/02/13 12:09:58;;;;;;;4.87;2.50;;;22.60;55.40;;;;;;4994278;28;20524;-80
2023/02/13 12:12:29;;;;;;;8.43;2.70;;;22.50;55.30;;;;;;4998044;28;20536;-77
2023/02/13 12:14:57;;;;;;;4.40;2.60;;;22.40;54.60;;;;;;4995854;28;20539;-78
2023/02/13 12:17:26;;;;;;;3.40;2.60;;;22.30;55.00;;;;;;4998584;28;20466;-80
2023/02/13 12:19:59;;;;;;;3.40;3.00;;;22.20;54.60;;;;;;4999712;28;20450;-78
2023/02/13 12:22:32;;;;;;;9.67;2.77;;;21.90;54.80;;;;;;4993757;28;20518;-80
2023/02/13 12:25:19;;;;;;;3.40;2.90;;;21.80;55.20;;;;;;4999209;28;20519;-78
2023/02/13 12:27:51;;;;;;;3.00;2.80;;;21.60;55.50;;;;;;4992926;28;20464;-79
2023/02/13 12:30:34;;;;;;;4.93;2.97;;;21.50;55.90;;;;;;4996688;28;20579;-78
2023/02/13 12:33:09;;;;;;;3.97;3.00;;;21.30;56.00;;;;;;4993629;28;20542;-78
2023/02/13 12:35:44;;;;;;;5.90;3.50;;;21.20;56.30;;;;;;4991521;28;20423;-80
2023/02/13 12:38:20;;;;;;;9.63;2.90;;;21.10;56.50;;;;;;4994996;28;20467;-77
2023/02/13 12:40:59;;;;;;;3.20;3.00;;;21.00;56.60;;;;;;4991247;28;20451;-81
2023/02/13 12:43:54;;;;;;;3.17;2.97;;;20.90;56.70;;;;;;4997747;28;20481;-81
2023/02/13 12:46:25;;;;;;;5.43;3.10;;;20.80;56.90;;;;;;4996806;28;20456;-81
2023/02/13 12:48:55;;;;;;;10.23;3.30;;;20.80;57.10;;;;;;4990945;28;20453;-79
2023/02/13 12:51:30;;;;;;;3.57;2.77;;;20.70;57.20;;;;;;4992712;28;20469;-80
2023/02/13 12:54:10;;;;;;;3.33;3.03;;;20.70;57.40;;;;;;4998126;28;20449;-80
2023/02/13 12:57:04;;;;;;;4.03;3.50;;;20.60;57.40;;;;;;4994645;28;20477;-79
2023/02/13 12:59:38;;;;;;;5.67;2.80;;;20.60;57.50;;;;;;4994623;28;20453;-79
2023/02/13 13:02:20;;;;;;;5.23;3.40;;;20.50;57.40;;;;;;4994950;28;20465;-80
2023/02/13 13:04:53;;;;;;;3.20;2.90;;;20.50;57.60;;;;;;4992350;28;20472;-79
2023/02/13 13:07:40;;;;;;;4.57;2.93;;;20.40;57.60;;;;;;4994525;28;20454;-81
2023/02/13 13:10:35;;;;;;;6.80;3.27;;;20.40;57.60;;;;;;4990519;28;20464;-80
2023/02/13 13:13:08;;;;;;;4.50;3.50;;;20.30;57.70;;;;;;4994305;28;20473;-80
2023/02/13 13:15:39;;;;;;;8.03;3.23;;;20.30;57.80;;;;;;4998768;28;20453;-80
2023/02/13 13:18:14;;;;;;;4.00;3.00;;;20.30;57.90;;;;;;4997577;28;20463;-80
2023/02/13 13:20:58;;;;;;;3.50;3.20;;;20.20;57.90;;;;;;4997069;28;20459;-79
2023/02/13 13:23:30;;;;;;;4.00;3.57;;;20.20;57.90;;;;;;4991165;28;20473;-80
2023/02/13 13:26:04;;;;;;;5.60;3.43;;;20.20;57.90;;;;;;4993474;28;20473;-80
2023/02/13 13:28:34;;;;;;;3.93;3.37;;;20.10;57.90;;;;;;4998294;28;20452;-80
2023/02/13 13:31:02;;;;;;;3.33;2.50;;;20.10;58.10;;;;;;4998313;28;20457;-81
2023/02/13 13:33:30;;;;;;;4.07;3.70;;;20.10;58.20;;;;;;4997320;28;20513;-80
2023/02/13 13:36:01;;;;;;;3.73;3.30;;;20.10;58.10;;;;;;5001827;28;20450;-80
2023/02/13 13:38:38;;;;;;;2.87;2.73;;;20.00;58.10;;;;;;5001983;28;20453;-81
2023/02/13 13:41:10;;;;;;;3.67;3.37;;;20.00;58.10;;;;;;5003984;28;20464;-80
2023/02/13 13:43:43;;;;;;;5.57;3.23;;;20.00;58.20;;;;;;4997089;28;20473;-80
2023/02/13 13:46:15;;;;;;;3.30;3.10;;;20.00;58.30;;;;;;4996375;28;20457;-81
2023/02/13 13:49:03;;;;;;;3.33;3.03;;;20.00;58.20;;;;;;4995933;28;20457;-80